Airport ID:KRTS
Update Time (UTC):18/09/2019 09:31
Wind Speed (Knots):12
Wind Direction (Magnetic):270
Temperature (°C):12
Dew Point (°C):-8
Humidity (%):24
Altimeter (inHg):29.99
Density Altitude (Feet):
Visibility (Miles):10+
Clouds (Hundreds of feet):CLR
Present Weather:
METAR:METAR KRTS 180930Z AUTO 28011KT 10SM CLR 12/M08 A2999 RMK AO2

The data displayed is for advisory purposes only and is not to be used for flight planning or operations.

This page is not automatically refreshed. Reload the page to see current data.